createdAt,value
2019-03-28T00:01:55.824Z,40.87
2019-03-28T00:04:28.176Z,28.43
2019-03-28T00:07:00.495Z,32.23
2019-03-28T00:09:32.837Z,21.63
2019-03-28T00:12:05.098Z,19.00
2019-03-28T00:14:37.417Z,54.60
2019-03-28T00:17:09.742Z,17.87
2019-03-28T00:19:42.044Z,24.93
2019-03-28T00:22:18.798Z,31.17
2019-03-28T00:24:57.082Z,29.40
2019-03-28T00:27:29.348Z,34.50
2019-03-28T00:30:01.665Z,23.10
2019-03-28T00:32:33.996Z,30.43
2019-03-28T00:35:06.392Z,27.17
2019-03-28T00:37:38.611Z,31.43
2019-03-28T00:40:11.084Z,25.27
2019-03-28T00:42:43.286Z,28.83
2019-03-28T00:45:15.410Z,31.43
2019-03-28T00:47:47.562Z,26.10
2019-03-28T00:50:19.810Z,18.03
2019-03-28T00:52:52.042Z,20.97
2019-03-28T00:55:24.188Z,30.73
2019-03-28T00:57:56.413Z,16.40
2019-03-28T01:00:28.550Z,19.40
2019-03-28T01:03:00.771Z,27.13
2019-03-28T01:05:32.983Z,33.03
2019-03-28T01:08:05.203Z,32.43
2019-03-28T01:10:37.348Z,23.43
2019-03-28T01:13:09.577Z,28.63
2019-03-28T01:15:41.792Z,19.77
2019-03-28T01:18:14.021Z,26.03
2019-03-28T01:20:46.168Z,19.07
2019-03-28T01:23:18.332Z,23.97
2019-03-28T01:25:50.823Z,26.30
2019-03-28T01:28:23.321Z,24.90
2019-03-28T01:30:56.463Z,23.87
2019-03-28T01:33:28.705Z,23.90
2019-03-28T01:36:00.853Z,24.60
2019-03-28T01:38:33.109Z,21.27
2019-03-28T01:41:05.265Z,19.87
2019-03-28T01:43:37.523Z,23.53
2019-03-28T01:46:09.667Z,17.50
2019-03-28T01:48:41.897Z,18.23
2019-03-28T01:51:14.055Z,18.30
2019-03-28T01:53:46.204Z,20.57
2019-03-28T01:56:18.366Z,16.10
2019-03-28T01:58:50.847Z,16.50
2019-03-28T02:01:23.313Z,20.50
2019-03-28T02:03:55.530Z,15.57
2019-03-28T02:06:27.739Z,18.10
2019-03-28T02:08:59.967Z,19.60
2019-03-28T02:11:32.176Z,15.53
2019-03-28T02:14:04.381Z,16.67
2019-03-28T02:16:36.608Z,14.80
2019-03-28T02:19:08.831Z,13.97
2019-03-28T02:21:41.124Z,15.53
2019-03-28T02:24:13.352Z,14.40
2019-03-28T02:26:45.562Z,14.07
2019-03-28T02:29:17.718Z,14.33
2019-03-28T02:31:50.268Z,15.50
2019-03-28T02:34:22.486Z,14.83
2019-03-28T02:36:54.687Z,11.87
2019-03-28T02:39:26.915Z,13.80
2019-03-28T02:41:59.125Z,12.23
2019-03-28T02:44:31.252Z,14.07
2019-03-28T02:47:03.481Z,12.60
2019-03-28T02:49:35.710Z,11.53
2019-03-28T02:52:07.923Z,11.17
2019-03-28T02:54:40.061Z,11.53
2019-03-28T02:57:12.216Z,13.40
2019-03-28T02:59:44.420Z,12.07
2019-03-28T03:02:16.658Z,12.97
2019-03-28T03:04:48.870Z,14.67
2019-03-28T03:07:21.471Z,11.87
2019-03-28T03:09:53.958Z,14.07
2019-03-28T03:12:26.230Z,15.43
2019-03-28T03:14:58.464Z,14.13
2019-03-28T03:17:30.665Z,13.70
2019-03-28T03:20:02.801Z,14.10
2019-03-28T03:22:35.010Z,12.30
2019-03-28T03:25:07.752Z,15.23
2019-03-28T03:27:56.212Z,15.73
2019-03-28T03:30:14.473Z,12.77
2019-03-28T03:32:46.705Z,17.30
2019-03-28T03:35:20.293Z,15.33
2019-03-28T03:37:52.440Z,71.23
2019-03-28T03:40:24.601Z,14.67
2019-03-28T03:42:57.160Z,13.87
2019-03-28T03:45:29.419Z,12.53
2019-03-28T03:48:01.668Z,13.40
2019-03-28T03:50:33.808Z,13.40
2019-03-28T03:53:06.037Z,13.43
2019-03-28T03:55:38.179Z,12.10
2019-03-28T03:58:16.206Z,14.13
2019-03-28T04:00:44.376Z,14.87
2019-03-28T04:03:16.661Z,14.77
2019-03-28T04:05:48.918Z,11.93
2019-03-28T04:08:21.596Z,11.43
2019-03-28T04:10:54.094Z,13.70
2019-03-28T04:13:26.395Z,14.20
2019-03-28T04:15:59.129Z,10.87
2019-03-28T04:18:31.451Z,14.40
2019-03-28T04:21:03.791Z,12.00
2019-03-28T04:23:36.076Z,14.57
2019-03-28T04:26:09.492Z,14.20
2019-03-28T04:28:41.813Z,13.83
2019-03-28T04:31:14.153Z,12.90
2019-03-28T04:33:46.479Z,14.70
2019-03-28T04:36:18.788Z,11.83
2019-03-28T04:38:52.388Z,14.30
2019-03-28T04:41:24.798Z,16.43
2019-03-28T04:43:57.185Z,16.13
2019-03-28T04:46:29.493Z,14.67
2019-03-28T04:49:01.882Z,14.17
2019-03-28T04:51:34.130Z,12.97
2019-03-28T04:54:09.610Z,18.33
2019-03-28T04:56:40.410Z,16.87
2019-03-28T04:59:12.800Z,13.83
2019-03-28T05:01:59.423Z,12.37
2019-03-28T05:04:21.053Z,14.67
2019-03-28T05:06:53.282Z,15.60
2019-03-28T05:09:25.519Z,14.80
2019-03-28T05:11:57.839Z,15.33
2019-03-28T05:14:30.166Z,13.60
2019-03-28T05:17:02.420Z,15.10
2019-03-28T05:19:34.793Z,18.07
2019-03-28T05:22:07.149Z,19.30
2019-03-28T05:24:39.389Z,15.73
2019-03-28T05:27:11.626Z,16.23
2019-03-28T05:29:43.889Z,13.47
2019-03-28T05:32:16.215Z,13.13
2019-03-28T05:34:48.465Z,16.37
2019-03-28T05:37:21.506Z,14.20
2019-03-28T05:39:54.030Z,12.53
2019-03-28T05:42:26.363Z,13.27
2019-03-28T05:44:58.632Z,12.57
2019-03-28T05:47:31.013Z,12.90
2019-03-28T05:50:03.339Z,11.57
2019-03-28T05:52:35.611Z,9.10
2019-03-28T05:55:07.854Z,12.17
2019-03-28T05:57:40.026Z,8.43
2019-03-28T06:00:12.160Z,11.40
2019-03-28T06:02:44.394Z,12.17
2019-03-28T06:05:16.591Z,12.47
2019-03-28T06:07:48.722Z,9.13
2019-03-28T06:10:21.032Z,18.23
2019-03-28T06:12:53.256Z,11.43
2019-03-28T06:15:25.399Z,11.17
2019-03-28T06:17:57.533Z,7.93
2019-03-28T06:20:30.199Z,9.53
2019-03-28T06:23:02.410Z,13.03
2019-03-28T06:25:34.638Z,12.63
2019-03-28T06:28:06.871Z,18.17
2019-03-28T06:30:39.014Z,9.83
2019-03-28T06:33:11.219Z,16.50
2019-03-28T06:35:43.461Z,19.20
2019-03-28T06:38:15.672Z,8.77
2019-03-28T06:40:47.814Z,14.00
2019-03-28T06:43:20.363Z,14.87
2019-03-28T06:45:52.511Z,12.13
2019-03-28T06:48:24.678Z,10.20
2019-03-28T06:50:56.842Z,11.10
2019-03-28T06:53:28.980Z,11.03
2019-03-28T06:56:01.109Z,11.63
2019-03-28T06:58:33.424Z,10.17
2019-03-28T07:01:06.638Z,8.13
2019-03-28T07:03:38.878Z,9.93
2019-03-28T07:06:11.093Z,13.80
2019-03-28T07:08:44.215Z,11.37
2019-03-28T07:11:16.648Z,11.67
2019-03-28T07:13:49.966Z,11.30
2019-03-28T07:16:22.065Z,12.03
2019-03-28T07:18:54.327Z,16.17
2019-03-28T07:21:26.775Z,13.93
2019-03-28T07:23:58.985Z,10.83
2019-03-28T07:26:31.197Z,13.83
2019-03-28T07:29:03.341Z,11.17
2019-03-28T07:31:35.766Z,15.47
2019-03-28T07:34:07.975Z,15.27
2019-03-28T07:36:40.189Z,14.73
2019-03-28T07:39:13.412Z,12.50
2019-03-28T07:41:45.711Z,25.90
2019-03-28T07:44:17.932Z,30.17
2019-03-28T07:46:50.377Z,31.93
2019-03-28T07:49:22.716Z,35.23
2019-03-28T07:51:54.878Z,15.97
2019-03-28T07:54:27.030Z,23.53
2019-03-28T07:56:59.188Z,18.37
2019-03-28T07:59:31.325Z,22.90
2019-03-28T08:02:03.546Z,17.57
2019-03-28T08:04:35.755Z,11.27
2019-03-28T08:07:08.012Z,13.93
2019-03-28T08:09:40.168Z,12.87
2019-03-28T08:12:22.375Z,19.33
2019-03-28T08:14:46.226Z,19.00
2019-03-28T08:17:18.456Z,11.40
2019-03-28T08:19:50.594Z,15.97
2019-03-28T08:22:22.773Z,17.77
2019-03-28T08:24:55.094Z,13.67
2019-03-28T08:27:27.362Z,11.77
2019-03-28T08:29:59.596Z,10.67
2019-03-28T08:32:31.843Z,12.37
2019-03-28T08:35:03.987Z,10.10
2019-03-28T08:37:36.818Z,20.73
2019-03-28T08:40:09.172Z,13.67
2019-03-28T08:42:41.393Z,11.30
2019-03-28T08:45:13.561Z,13.03
2019-03-28T08:47:45.707Z,12.23
2019-03-28T08:50:17.940Z,20.53
2019-03-28T08:52:50.263Z,16.43
2019-03-28T08:55:22.531Z,14.40
2019-03-28T08:57:54.841Z,13.80
2019-03-28T09:00:35.212Z,16.33
2019-03-28T09:03:01.951Z,15.93
2019-03-28T09:05:34.184Z,18.40
2019-03-28T09:08:06.356Z,21.07
2019-03-28T09:10:38.525Z,12.50
2019-03-28T09:13:10.787Z,11.73
2019-03-28T09:15:44.253Z,32.63
2019-03-28T09:18:16.522Z,58.87
2019-03-28T09:20:48.660Z,27.67
2019-03-28T09:23:21.457Z,15.63
2019-03-28T09:25:53.941Z,21.17
2019-03-28T09:28:26.100Z,9.87
2019-03-28T09:30:58.265Z,10.47
2019-03-28T09:33:30.421Z,8.63
2019-03-28T09:36:02.578Z,11.50
2019-03-28T09:38:35.690Z,12.20
2019-03-28T09:41:07.957Z,7.73
2019-03-28T09:43:54.217Z,10.33
2019-03-28T09:46:14.586Z,14.00
2019-03-28T09:48:46.942Z,62.30
2019-03-28T09:51:19.168Z,14.70
2019-03-28T09:53:51.450Z,11.43
2019-03-28T09:56:23.926Z,21.40
2019-03-28T09:58:56.074Z,12.03
2019-03-28T10:01:28.326Z,13.57
2019-03-28T10:04:01.561Z,17.13
2019-03-28T10:06:33.782Z,10.63
2019-03-28T10:09:07.284Z,22.30
2019-03-28T10:11:39.588Z,11.93
2019-03-28T10:14:12.815Z,10.23
2019-03-28T10:16:44.963Z,9.90
2019-03-28T10:19:17.190Z,10.03
2019-03-28T10:21:49.346Z,25.07
2019-03-28T10:24:21.579Z,21.47
2019-03-28T10:26:54.481Z,17.43
2019-03-28T10:29:26.960Z,13.67
2019-03-28T10:31:59.125Z,14.47
2019-03-28T10:34:31.299Z,10.30
2019-03-28T10:37:04.874Z,20.93
2019-03-28T10:39:37.257Z,9.37
2019-03-28T10:42:12.180Z,22.83
2019-03-28T10:44:44.348Z,14.90
2019-03-28T10:47:17.468Z,8.10
2019-03-28T10:49:49.688Z,4.73
2019-03-28T10:52:21.828Z,12.73
2019-03-28T10:54:54.484Z,5.10
2019-03-28T10:57:31.334Z,7.30
2019-03-28T11:00:00.876Z,15.57
2019-03-28T11:02:33.102Z,7.67
2019-03-28T11:05:05.622Z,8.97
2019-03-28T11:07:37.844Z,12.07
2019-03-28T11:10:10.381Z,7.27
2019-03-28T11:12:42.597Z,9.23
2019-03-28T11:15:14.816Z,8.17
2019-03-28T11:17:47.619Z,36.77
2019-03-28T11:20:20.749Z,16.30
2019-03-28T11:22:53.277Z,15.90
2019-03-28T11:25:25.429Z,23.80
2019-03-28T11:27:57.611Z,14.10
2019-03-28T11:30:29.769Z,9.00
2019-03-28T11:33:01.990Z,9.90
2019-03-28T11:35:34.147Z,8.40
2019-03-28T11:38:09.453Z,8.40
2019-03-28T11:40:42.922Z,6.60
2019-03-28T11:43:14.428Z,6.03
2019-03-28T11:45:46.705Z,12.90
2019-03-28T11:48:18.859Z,8.73
2019-03-28T11:50:51.453Z,12.17
2019-03-28T11:53:23.967Z,6.40
2019-03-28T11:55:56.179Z,7.50
2019-03-28T11:58:28.401Z,9.20
2019-03-28T12:01:00.833Z,7.03
2019-03-28T12:03:33.050Z,8.77
2019-03-28T12:06:05.203Z,10.43
2019-03-28T12:08:37.425Z,9.63
2019-03-28T12:11:09.577Z,10.73
2019-03-28T12:13:44.951Z,6.73
2019-03-28T12:16:15.645Z,30.47
2019-03-28T12:18:47.803Z,19.47
2019-03-28T12:21:20.259Z,8.37
2019-03-28T12:23:52.521Z,10.07
2019-03-28T12:26:24.668Z,16.03
2019-03-28T12:28:57.658Z,17.17
2019-03-28T12:31:33.073Z,13.07
2019-03-28T12:34:03.805Z,18.47
2019-03-28T12:36:36.026Z,20.13
2019-03-28T12:39:08.655Z,11.20
2019-03-28T12:41:40.873Z,7.57
2019-03-28T12:44:13.093Z,8.40
2019-03-28T12:46:46.229Z,8.80
2019-03-28T12:49:18.473Z,17.73
2019-03-28T12:51:50.624Z,13.97
2019-03-28T12:54:22.763Z,7.57
2019-03-28T12:56:58.029Z,18.13
2019-03-28T12:59:28.869Z,7.00
2019-03-28T13:02:01.041Z,9.40
2019-03-28T13:04:33.253Z,9.17
2019-03-28T13:07:05.412Z,11.43
2019-03-28T13:09:37.577Z,9.53
2019-03-28T13:12:11.458Z,9.13
2019-03-28T13:14:43.912Z,8.30
2019-03-28T13:17:16.043Z,6.97
2019-03-28T13:19:48.207Z,16.43
2019-03-28T13:22:20.359Z,7.67
2019-03-28T13:24:52.502Z,93.97
2019-03-28T13:27:24.728Z,14.17
2019-03-28T13:29:56.980Z,114.90
2019-03-28T13:32:41.125Z,11.13
2019-03-28T13:35:02.982Z,8.17
2019-03-28T13:37:35.189Z,8.97
2019-03-28T13:40:07.427Z,9.10
2019-03-28T13:42:39.571Z,14.23
2019-03-28T13:45:11.734Z,20.10
2019-03-28T13:47:43.972Z,18.37
2019-03-28T13:50:18.392Z,8.17
2019-03-28T13:52:50.556Z,12.87
2019-03-28T13:55:25.117Z,26.47
2019-03-28T13:57:57.654Z,33.77
2019-03-28T14:00:33.934Z,13.33
2019-03-28T14:03:06.238Z,20.00
2019-03-28T14:05:38.456Z,49.67
2019-03-28T14:08:11.291Z,16.57
2019-03-28T14:10:43.526Z,10.60
2019-03-28T14:13:15.734Z,9.23
2019-03-28T14:15:47.871Z,18.13
2019-03-28T14:18:20.311Z,25.30
2019-03-28T14:20:52.545Z,27.20
2019-03-28T14:23:24.715Z,36.20
2019-03-28T14:25:56.988Z,34.43
2019-03-28T14:28:29.214Z,30.83
2019-03-28T14:31:01.374Z,60.07
2019-03-28T14:33:33.612Z,62.67
2019-03-28T14:36:05.832Z,22.10
2019-03-28T14:38:37.983Z,22.63
2019-03-28T14:41:10.213Z,36.17
2019-03-28T14:43:42.386Z,11.40
2019-03-28T14:46:14.550Z,42.23
2019-03-28T14:48:46.749Z,19.40
2019-03-28T14:51:18.970Z,34.10
2019-03-28T14:53:51.563Z,23.60
2019-03-28T14:56:24.421Z,25.10
2019-03-28T14:58:56.971Z,19.77
2019-03-28T15:01:29.141Z,21.83
2019-03-28T15:04:01.365Z,15.03
2019-03-28T15:06:33.604Z,11.10
2019-03-28T15:09:08.479Z,43.47
2019-03-28T15:11:40.707Z,26.00
2019-03-28T15:14:12.883Z,21.77
2019-03-28T15:16:45.040Z,9.67
2019-03-28T15:19:17.198Z,22.37
2019-03-28T15:21:50.525Z,40.23
2019-03-28T15:24:22.765Z,47.13
2019-03-28T15:26:55.322Z,25.47
2019-03-28T15:29:27.531Z,20.17
2019-03-28T15:31:59.780Z,51.53
2019-03-28T15:34:32.050Z,19.93
2019-03-28T15:37:04.293Z,37.47
2019-03-28T15:39:40.712Z,33.13
2019-03-28T15:42:13.101Z,32.07
2019-03-28T15:44:45.345Z,33.33
2019-03-28T15:47:17.806Z,166.30
2019-03-28T15:49:51.149Z,73.33
2019-03-28T15:52:23.537Z,57.37
2019-03-28T15:54:55.786Z,75.10
2019-03-28T15:57:27.978Z,101.33
2019-03-28T16:00:00.352Z,45.67
2019-03-28T16:02:32.617Z,135.93
2019-03-28T16:05:04.881Z,44.47
2019-03-28T16:07:37.106Z,27.80
2019-03-28T16:10:10.547Z,45.90
2019-03-28T16:12:42.773Z,45.10
2019-03-28T16:15:15.023Z,57.13
2019-03-28T16:17:47.668Z,54.20
2019-03-28T16:20:20.582Z,23.80
2019-03-28T16:22:52.822Z,67.17
2019-03-28T16:25:25.037Z,34.00
2019-03-28T16:27:57.249Z,38.40
2019-03-28T16:30:36.876Z,22.07
2019-03-28T16:33:09.385Z,261.83
2019-03-28T16:35:41.638Z,258.23
2019-03-28T16:38:13.881Z,120.27
2019-03-28T16:40:46.120Z,87.27
2019-03-28T16:43:18.305Z,35.57
2019-03-28T16:45:50.581Z,49.30
2019-03-28T16:48:22.834Z,32.30
2019-03-28T16:50:56.063Z,35.03
2019-03-28T16:53:28.314Z,35.10
2019-03-28T16:56:00.474Z,54.00
2019-03-28T16:58:32.635Z,47.90
2019-03-28T17:01:04.967Z,45.50
2019-03-28T17:03:37.195Z,61.80
2019-03-28T17:06:09.455Z,44.37
2019-03-28T17:08:41.683Z,51.23
2019-03-28T17:11:13.870Z,254.37
2019-03-28T17:13:46.510Z,683.87
2019-03-28T17:16:18.693Z,549.40
2019-03-28T17:18:50.942Z,448.57
2019-03-28T17:21:23.576Z,393.73
2019-03-28T17:23:55.832Z,319.27
2019-03-28T17:26:28.007Z,289.33
2019-03-28T17:29:00.185Z,256.53
2019-03-28T17:31:32.464Z,324.03
2019-03-28T17:34:04.650Z,477.00
2019-03-28T17:36:36.831Z,465.43
2019-03-28T17:39:09.174Z,375.20
2019-03-28T17:41:41.428Z,385.83
2019-03-28T17:44:14.699Z,346.70
2019-03-28T17:46:47.020Z,306.77
2019-03-28T17:49:19.185Z,130.67
2019-03-28T17:51:51.759Z,153.10
2019-03-28T17:54:24.454Z,140.00
2019-03-28T17:56:56.623Z,99.80
2019-03-28T17:59:28.910Z,122.07
2019-03-28T18:02:01.138Z,89.67
2019-03-28T18:04:33.373Z,109.73
2019-03-28T18:07:05.614Z,132.43
2019-03-28T18:09:38.002Z,172.20
2019-03-28T18:12:10.288Z,138.20
2019-03-28T18:14:42.428Z,137.60
2019-03-28T18:17:14.591Z,221.33
2019-03-28T18:19:46.748Z,222.13
2019-03-28T18:22:18.910Z,206.67
2019-03-28T18:24:51.729Z,198.50
2019-03-28T18:27:24.498Z,176.33
2019-03-28T18:29:56.946Z,164.00
2019-03-28T18:32:29.197Z,151.63
2019-03-28T18:35:05.540Z,256.60
2019-03-28T18:37:35.512Z,219.87
2019-03-28T18:40:07.752Z,173.23
2019-03-28T18:42:39.987Z,192.77
2019-03-28T18:45:12.807Z,200.73
2019-03-28T18:47:45.129Z,237.43
2019-03-28T18:50:17.315Z,261.80
2019-03-28T18:52:49.556Z,256.63
2019-03-28T18:55:21.795Z,218.30
2019-03-28T18:57:54.488Z,202.33
2019-03-28T19:00:26.747Z,232.13
2019-03-28T19:02:58.917Z,297.87
2019-03-28T19:05:31.135Z,230.03
2019-03-28T19:08:04.333Z,206.63
2019-03-28T19:10:37.734Z,167.10
2019-03-28T19:13:10.081Z,158.10
2019-03-28T19:15:42.255Z,311.70
2019-03-28T19:18:14.510Z,323.43
2019-03-28T19:20:46.836Z,294.07
2019-03-28T19:23:19.377Z,476.77
2019-03-28T19:25:51.697Z,443.50
2019-03-28T19:28:29.156Z,478.67
2019-03-28T19:30:57.810Z,449.37
2019-03-28T19:33:30.076Z,440.93
2019-03-28T19:36:03.317Z,466.67
2019-03-28T19:38:35.786Z,506.70
2019-03-28T19:41:08.881Z,641.20
2019-03-28T19:43:41.051Z,570.83
2019-03-28T19:46:13.404Z,578.37
2019-03-28T19:48:45.779Z,713.10
2019-03-28T19:51:18.247Z,552.97
2019-03-28T19:53:51.271Z,609.13
2019-03-28T19:56:23.857Z,573.43
2019-03-28T19:58:59.213Z,497.60
2019-03-28T20:01:31.946Z,527.17
2019-03-28T20:04:04.595Z,570.90
2019-03-28T20:06:36.879Z,685.73
2019-03-28T20:09:16.225Z,457.00
2019-03-28T20:11:43.307Z,511.33
2019-03-28T20:14:16.049Z,456.50
2019-03-28T20:16:48.309Z,465.60
2019-03-28T20:19:20.590Z,587.77
2019-03-28T20:21:52.763Z,514.90
2019-03-28T20:24:25.166Z,424.53
2019-03-28T20:26:57.571Z,424.00
2019-03-28T20:29:29.758Z,519.50
2019-03-28T20:32:01.999Z,578.00
2019-03-28T20:34:34.326Z,545.47
2019-03-28T20:37:06.566Z,557.13
2019-03-28T20:39:38.812Z,565.63
2019-03-28T20:42:11.051Z,564.10
2019-03-28T20:44:43.302Z,672.37
2019-03-28T20:47:15.539Z,608.13
2019-03-28T20:49:47.834Z,524.17
2019-03-28T20:52:20.355Z,525.43
2019-03-28T20:54:53.015Z,531.57
2019-03-28T20:57:25.472Z,532.33
2019-03-28T20:59:57.695Z,534.63
2019-03-28T21:02:29.931Z,501.97
2019-03-28T21:05:03.732Z,551.27
2019-03-28T21:07:36.765Z,596.43
2019-03-28T21:10:10.734Z,513.07
2019-03-28T21:12:43.810Z,507.77
2019-03-28T21:15:16.343Z,536.97
2019-03-28T21:17:49.130Z,494.73
2019-03-28T21:20:22.069Z,518.90
2019-03-28T21:22:54.634Z,512.73
2019-03-28T21:25:29.572Z,518.70
2019-03-28T21:28:00.861Z,440.30
2019-03-28T21:30:46.345Z,588.20
2019-03-28T21:33:07.012Z,542.73
2019-03-28T21:35:39.435Z,515.37
2019-03-28T21:38:11.640Z,611.37
2019-03-28T21:40:43.798Z,551.60
2019-03-28T21:43:16.029Z,711.53
2019-03-28T21:45:48.321Z,654.93
2019-03-28T21:48:20.455Z,645.43
2019-03-28T21:50:53.221Z,559.90
2019-03-28T21:53:26.127Z,503.70
2019-03-28T21:55:59.243Z,348.33
2019-03-28T21:58:31.497Z,276.37
2019-03-28T22:01:03.662Z,205.23
2019-03-28T22:03:35.882Z,236.27
2019-03-28T22:06:09.010Z,206.73
2019-03-28T22:08:41.154Z,95.23
2019-03-28T22:11:13.711Z,104.07
2019-03-28T22:13:46.038Z,76.40
2019-03-28T22:16:18.210Z,66.63
2019-03-28T22:18:50.358Z,65.97
2019-03-28T22:21:23.016Z,52.63
2019-03-28T22:23:55.536Z,61.37
2019-03-28T22:26:27.717Z,103.67
2019-03-28T22:28:59.906Z,157.43
2019-03-28T22:31:32.452Z,116.03
2019-03-28T22:34:04.627Z,109.40
2019-03-28T22:36:36.778Z,114.43
2019-03-28T22:39:09.208Z,76.33
2019-03-28T22:41:41.430Z,85.53
2019-03-28T22:44:14.363Z,68.93
2019-03-28T22:46:46.718Z,74.10
2019-03-28T22:49:18.877Z,69.03
2019-03-28T22:51:51.104Z,98.90
2019-03-28T22:54:23.254Z,86.93
2019-03-28T22:56:55.729Z,63.43
2019-03-28T22:59:27.878Z,68.00
2019-03-28T23:02:00.120Z,59.10
2019-03-28T23:04:32.440Z,56.57
2019-03-28T23:07:10.802Z,70.53
2019-03-28T23:09:38.578Z,73.40
2019-03-28T23:12:10.736Z,56.97
2019-03-28T23:14:42.970Z,42.37
2019-03-28T23:17:15.124Z,41.33
2019-03-28T23:19:47.394Z,62.73
2019-03-28T23:22:19.556Z,58.03
2019-03-28T23:24:53.038Z,46.40
2019-03-28T23:27:26.933Z,58.30
2019-03-28T23:29:59.250Z,78.27
2019-03-28T23:32:31.493Z,64.83
2019-03-28T23:35:03.710Z,64.30
2019-03-28T23:37:35.953Z,65.57
2019-03-28T23:40:08.337Z,51.23
2019-03-28T23:42:40.581Z,53.07
2019-03-28T23:45:13.044Z,59.70
2019-03-28T23:47:45.360Z,51.50
2019-03-28T23:50:17.530Z,49.03
2019-03-28T23:52:49.853Z,54.57
2019-03-28T23:55:22.086Z,38.10
2019-03-28T23:57:55.187Z,33.30
